63740 station(s) have been heard in the last 24 hours.

<< 1008 1009 1010 1011 1012 1013 1014 >>
  Name/Id Latest heard Comment/Other Map
Symbol BH2WJC-10 1778013856 144.640MHz UV-5RH 438.500 Map
Symbol DB0MAD-D 1778013851 70cm MMDVM Voice (DMR) 438.47500MHz -7.6000MHz, APRS for DMRGateway Map
Symbol W9FHC-9 1778013850 `_4 Map
Symbol CS7BGW-9 1778013847 `_3 Map
Symbol N5DLB-9 1778013846 `_2 Map
Symbol DM4NR-9 1778013845 `145.500MHz 145.500_2 Map
Symbol EA1HGL-B 1778013845 70cm Voice (D-Star) 430.92500MHz +0.0000MHz Map
Symbol UB3APB-NY 1778013845 Voice 145.5, APRS 144.8 Map
Symbol SQ8ISD-B 1778013845 70cm Voice (D-Star) 437.00000MHz +0.0000MHz Map
Symbol UB3APB-WY 1778013844 Temp 24.8/8.5/9.6/14.0C Hum 99.0% (2026-05-05 23:44:43) Map
Symbol DB0MAD-R 1778013841 70cm MMDVM Voice (C4FM) 438.47500MHz -7.6000MHz, DB0MAD_Pi-Star_RPT Map
Symbol AB1KI 1778013839 Map
Symbol N1SU-4 1778013839 Map
Symbol BG4ESO-2 1778013839 E1[NRL_2100A_D4_260205 12.2V RX:438.7500:118.8 TX:430.7000:118.8] HELLO Map
Symbol HP3BSM-7 1778013839 YSF#24542 via pYSFReflector FTM-500D Map
Symbol EA1HGL B 1778013836 70cm Voice (D-Star) 430.92500MHz +0.0000MHz Map
Symbol SQ8ISD B 1778013835 70cm Voice (D-Star) 437.00000MHz +0.0000MHz Map
Symbol DL1HGB-7 1778013833 Hans E16 Map
Symbol SQ7LQZ-D 1778013828 70cm MMDVM Voice (DMR) 439.80000MHz -7.6000MHz, SQ7LQZ RYSZARD KO01NA Map
Symbol IS0AAJ-2 1778013827 >OP.ALFIO Map
Symbol N8QYQ-9 1778013822 `146.520MHz_4 Map
Symbol OE5RGM-99 1778013820 B=068 Map
Symbol KC7I-7 1778013809 Map
Symbol F4DVI-11 1778013792 Map
Symbol 9M2WAA-5 1778013782 LoRa APRS Map
Symbol IW4EGP-9 1778013779 `Op.Paolo QRV C4FM ROOM ITALY Map
Symbol WX4ATL-12 1778013775 PocketPacket on iOS Map
Symbol CX3BA-10 1778013772 https://aprsdroid.org Map
Symbol KB2ZPI-9 1778013764 `145.170MHz T114 -060 Mobile & Voice Alert (T100 on 144.39) Map
Symbol EA8DS-9 1778013763 `_4 Map
Symbol N8CYY 1778013758 Charles / TH-D75 Map
Symbol KQ4RTC-D 1778013757 70cm MMDVM Voice (DMR) 446.55000MHz +0.0000MHz, APRS for DMRGateway Map
Symbol 9W2CVR-7 1778013752 Map
Symbol M0OKK-B 1778013746 70cm Voice (D-Star) 434.00000MHz +0.0000MHz Map
Symbol N4CRJ 1778013745 Lake Mary, Florida USA Map
Symbol DB0OX-D 1778013744 70cm MMDVM Voice (DMR) 439.30000MHz -7.6000MHz, APRS for DMRGateway Map
Symbol VE2PVI-10 1778013742 APRS-HSPT Map
Symbol G5RJD-7 1778013740 G5RJD Witton Le Wear County Durham Map
Symbol IK6IHH-Y 1778013739 FTM-300D via MMDVM Map
Symbol M0OKK B 1778013736 70cm Voice (D-Star) 434.00000MHz +0.0000MHz Map
Symbol KD4MOJ 1778013734 443.1375 +5 DMR CC1 Map
Symbol EA4JJ-N 1778013725 70cm MMDVM Voice (C4FM) 438.32500MHz +0.0000MHz, EA4JJ_Pi-Star_ND Map
Symbol SP6KBU-7 1778013722 Map
Symbol IW1ENZ-B 1778013720 70cm Voice (D-Star) 433.50000MHz +0.0000MHz Map
Symbol PD1ALW-9 1778013720 `437.400 qrv _4 Map
Symbol LU2WBA-10 1778013718 LU2WBA-10 | OVERSIGHT | La Torre | Patagonia AR | via ISS Map
Symbol SQ9CYD-6 1778013717 Lora Tracker Map
Symbol F6KTN-0 1778013713 DIREWOLF 1.4 / RaspberryPi2 / WIDE2-2 FR7-7 HDF7-7 NORD7-7 / VHF Omni / JO10VE Map
Symbol IW1ENZ B 1778013710 70cm Voice (D-Star) 433.50000MHz +0.0000MHz Map
Symbol KD2ZZA-B 1778013708 70cm Voice (D-Star) 439.78750MHz +0.0000MHz Map